Time;durP1;ratioP1;P1;durP2;ratioP2;P2;SDS_P1;SDS_P2;PMS_P1;PMS_P2;Temp;Humidity;BMP_temperature;BMP_pressure;BME280_temperature;BME280_humidity;BME280_pressure;Samples;Min_cycle;Max_cycle;Signal;HPM_P1;HPM_P2
2022/10/21 00:01:19;;;;;;;36.67;24.73;;;10.00;99.90;;;;;;5034774;28;20108;-68
2022/10/21 00:03:45;;;;;;;34.40;24.73;;;10.00;99.90;;;;;;5031006;28;20029;-67
2022/10/21 00:06:10;;;;;;;39.80;24.95;;;10.00;99.90;;;;;;5022346;28;20029;-67
2022/10/21 00:08:36;;;;;;;40.50;25.17;;;9.90;99.90;;;;;;5017445;28;20053;-68
2022/10/21 00:11:05;;;;;;;37.13;24.20;;;9.90;99.90;;;;;;5015055;28;20101;-67
2022/10/21 00:13:32;;;;;;;42.58;25.35;;;9.90;99.90;;;;;;5015157;28;20118;-67
2022/10/21 00:16:00;;;;;;;40.97;26.60;;;9.80;99.90;;;;;;5034662;28;20037;-68
2022/10/21 00:18:26;;;;;;;44.45;27.17;;;9.70;99.90;;;;;;5034733;28;20025;-68
2022/10/21 00:20:52;;;;;;;40.35;27.33;;;9.70;99.90;;;;;;5030696;28;20030;-67
2022/10/21 00:23:17;;;;;;;35.55;24.58;;;9.70;99.90;;;;;;5034180;28;20481;-68
2022/10/21 00:25:43;;;;;;;43.30;28.15;;;9.80;99.90;;;;;;5034880;28;20082;-68
2022/10/21 00:28:08;;;;;;;44.13;26.20;;;9.80;99.90;;;;;;5034242;28;20034;-68
2022/10/21 00:30:34;;;;;;;35.13;23.77;;;9.90;99.90;;;;;;5034159;28;20017;-67
2022/10/21 00:32:59;;;;;;;42.92;27.73;;;9.90;99.90;;;;;;5034458;28;20034;-68
2022/10/21 00:35:25;;;;;;;38.75;27.17;;;9.90;99.90;;;;;;5034610;28;20025;-68
2022/10/21 00:37:50;;;;;;;35.20;26.30;;;10.00;99.90;;;;;;5034063;28;20099;-67
2022/10/21 00:40:16;;;;;;;41.42;26.00;;;10.00;99.90;;;;;;5034207;28;20064;-67
2022/10/21 00:42:41;;;;;;;43.38;29.38;;;10.00;99.90;;;;;;5034262;28;20053;-68
2022/10/21 00:45:07;;;;;;;42.05;27.95;;;10.00;99.90;;;;;;5034492;28;20025;-67
2022/10/21 00:47:38;;;;;;;52.70;29.90;;;10.00;99.90;;;;;;5034076;28;20025;-67
2022/10/21 00:50:04;;;;;;;49.08;29.52;;;10.00;99.90;;;;;;5034139;28;20104;-67
2022/10/21 00:52:33;;;;;;;45.40;31.10;;;10.00;99.90;;;;;;5033684;28;20072;-68
2022/10/21 00:55:03;;;;;;;42.78;28.77;;;10.00;99.90;;;;;;5034311;28;20029;-68
2022/10/21 00:57:31;;;;;;;46.55;29.75;;;10.10;99.90;;;;;;5033877;28;20022;-68
2022/10/21 01:00:00;;;;;;;55.72;31.65;;;10.10;99.90;;;;;;5033267;28;20018;-66
2022/10/21 01:02:27;;;;;;;50.70;32.45;;;10.10;99.90;;;;;;5026143;28;20018;-67
2022/10/21 01:04:57;;;;;;;48.85;32.33;;;10.10;99.90;;;;;;5031900;28;20017;-67
2022/10/21 01:07:23;;;;;;;49.67;31.42;;;10.10;99.90;;;;;;5033613;28;20032;-67
2022/10/21 01:09:49;;;;;;;42.35;28.70;;;10.10;99.90;;;;;;5033541;28;20388;-68
2022/10/21 01:12:28;;;;;;;44.38;29.25;;;10.10;99.90;;;;;;5033375;28;20030;-67
2022/10/21 01:15:06;;;;;;;45.78;31.45;;;10.10;99.90;;;;;;5033816;28;20104;-68
2022/10/21 01:17:38;;;;;;;46.47;32.33;;;10.10;99.90;;;;;;5032743;28;20044;-67
2022/10/21 01:20:19;;;;;;;56.50;35.60;;;10.00;99.90;;;;;;5033575;28;20473;-67
2022/10/21 01:23:12;;;;;;;61.03;34.33;;;10.10;99.90;;;;;;5024655;28;20030;-67
2022/10/21 01:26:02;;;;;;;59.20;38.03;;;10.00;99.90;;;;;;5015804;28;20026;-68
2022/10/21 01:28:34;;;;;;;63.08;38.33;;;10.00;99.90;;;;;;5013610;28;20237;-67
2022/10/21 01:31:14;;;;;;;60.88;35.63;;;10.00;99.90;;;;;;5013493;28;20018;-68
2022/10/21 01:33:56;;;;;;;66.85;38.50;;;9.90;99.90;;;;;;5013456;28;20022;-67
2022/10/21 01:36:44;;;;;;;63.05;39.75;;;9.90;99.90;;;;;;5013725;28;20025;-68
2022/10/21 01:39:18;;;;;;;64.70;38.47;;;9.90;99.90;;;;;;5014004;28;20068;-67
2022/10/21 01:42:03;;;;;;;68.78;39.05;;;9.90;99.90;;;;;;5013659;28;20037;-67
2022/10/21 01:44:49;;;;;;;77.15;41.80;;;9.90;99.90;;;;;;5013686;28;20022;-68
2022/10/21 01:47:19;;;;;;;73.88;40.17;;;9.90;99.90;;;;;;5013369;28;20022;-67
2022/10/21 01:49:52;;;;;;;64.25;38.08;;;10.00;99.90;;;;;;5013330;28;20489;-68
2022/10/21 01:52:18;;;;;;;67.32;41.40;;;10.00;99.90;;;;;;5013174;28;20045;-67
2022/10/21 01:54:48;;;;;;;72.25;39.63;;;10.00;99.90;;;;;;5013295;28;20034;-67
2022/10/21 01:57:17;;;;;;;72.22;39.13;;;10.00;99.90;;;;;;5013286;28;20033;-67
2022/10/21 01:59:45;;;;;;;66.75;38.13;;;10.10;99.90;;;;;;5013258;28;20026;-67
2022/10/21 02:02:11;;;;;;;76.80;42.10;;;10.10;99.90;;;;;;5013257;28;20033;-67
2022/10/21 02:04:40;;;;;;;69.03;40.70;;;10.10;99.90;;;;;;5013367;28;20524;-68
2022/10/21 02:07:06;;;;;;;80.93;43.15;;;10.10;99.90;;;;;;5013171;28;20030;-68
2022/10/21 02:09:31;;;;;;;86.72;43.63;;;10.10;99.90;;;;;;5028768;28;20074;-68
2022/10/21 02:12:00;;;;;;;88.07;44.80;;;10.10;99.90;;;;;;5033055;28;20037;-67
2022/10/21 02:14:41;;;;;;;71.32;40.35;;;10.10;99.90;;;;;;5032832;28;20036;-67
2022/10/21 02:17:10;;;;;;;78.35;41.63;;;10.10;99.90;;;;;;5033092;28;20021;-67
2022/10/21 02:19:35;;;;;;;75.88;41.72;;;10.10;99.90;;;;;;5032942;28;20021;-67
2022/10/21 02:22:05;;;;;;;80.75;39.88;;;10.10;99.90;;;;;;5032772;28;20501;-68
2022/10/21 02:24:51;;;;;;;75.25;41.10;;;10.10;99.90;;;;;;5032757;28;20049;-67
2022/10/21 02:27:17;;;;;;;77.57;42.08;;;10.10;99.90;;;;;;5032756;28;20393;-68
2022/10/21 02:29:44;;;;;;;85.80;44.05;;;10.10;99.90;;;;;;5036083;28;20380;-67
2022/10/21 02:32:25;;;;;;;75.25;39.55;;;10.10;99.90;;;;;;5036411;28;20032;-67
2022/10/21 02:35:33;;;;;;;74.75;40.55;;;10.10;99.90;;;;;;5036712;28;20099;-68
2022/10/21 02:38:16;;;;;;;94.28;44.03;;;10.10;99.90;;;;;;5036916;28;20026;-68
2022/10/21 02:40:44;;;;;;;82.32;41.85;;;10.10;99.90;;;;;;5036405;28;20493;-68
2022/10/21 02:43:18;;;;;;;93.25;45.47;;;10.10;99.90;;;;;;5036284;28;20029;-68
2022/10/21 02:45:46;;;;;;;79.78;40.95;;;10.10;99.90;;;;;;5036533;28;20051;-68
2022/10/21 02:48:12;;;;;;;84.55;40.10;;;10.10;99.90;;;;;;5036459;28;20017;-68
2022/10/21 02:50:37;;;;;;;80.05;41.33;;;10.10;99.90;;;;;;5036117;28;20139;-67
2022/10/21 02:53:03;;;;;;;83.72;43.13;;;10.10;99.90;;;;;;5036112;28;20473;-67
2022/10/21 02:55:29;;;;;;;83.50;42.15;;;10.10;99.90;;;;;;5036628;28;20025;-67
2022/10/21 02:57:54;;;;;;;75.95;40.22;;;10.10;99.90;;;;;;5035967;28;20026;-67
2022/10/21 03:00:20;;;;;;;82.97;40.65;;;10.10;99.90;;;;;;5036120;28;20057;-67
2022/10/21 03:02:45;;;;;;;70.45;38.13;;;10.10;99.90;;;;;;5035885;28;20425;-67
2022/10/21 03:05:11;;;;;;;67.43;38.60;;;10.10;99.90;;;;;;5036373;28;20068;-68
2022/10/21 03:07:37;;;;;;;78.90;42.45;;;10.10;99.90;;;;;;5036055;28;20037;-68
2022/10/21 03:10:04;;;;;;;78.13;41.92;;;10.10;99.90;;;;;;5035779;28;20033;-68
2022/10/21 03:12:29;;;;;;;82.43;42.13;;;10.10;99.90;;;;;;5035619;28;20026;-68
2022/10/21 03:14:55;;;;;;;75.85;39.05;;;10.00;99.90;;;;;;5035661;28;20101;-68
2022/10/21 03:17:20;;;;;;;76.50;37.78;;;10.00;99.90;;;;;;5035594;28;20082;-68
2022/10/21 03:19:46;;;;;;;84.43;39.63;;;10.10;99.90;;;;;;5035616;28;20026;-68
2022/10/21 03:22:11;;;;;;;75.95;39.50;;;10.00;99.90;;;;;;5035557;28;20032;-68
2022/10/21 03:24:37;;;;;;;80.20;39.08;;;10.00;99.90;;;;;;5035498;28;20385;-68
2022/10/21 03:27:03;;;;;;;75.88;39.92;;;10.00;99.90;;;;;;5035750;28;20028;-68
2022/10/21 03:29:28;;;;;;;70.18;38.47;;;10.00;99.90;;;;;;5035700;28;20029;-68
2022/10/21 03:31:54;;;;;;;77.15;41.40;;;10.00;99.90;;;;;;5035153;28;20373;-67
2022/10/21 03:34:19;;;;;;;77.10;40.30;;;10.00;99.90;;;;;;5035309;28;20033;-67
2022/10/21 03:36:45;;;;;;;72.07;38.28;;;10.00;99.90;;;;;;5035771;28;20034;-67
2022/10/21 03:39:11;;;;;;;70.75;39.90;;;10.00;99.90;;;;;;5035174;28;20025;-67
2022/10/21 03:41:36;;;;;;;75.40;40.97;;;9.90;99.90;;;;;;5034573;28;20075;-67
2022/10/21 03:44:02;;;;;;;74.13;40.05;;;9.90;99.90;;;;;;5035405;28;20026;-67
2022/10/21 03:46:27;;;;;;;74.75;41.35;;;10.00;99.90;;;;;;5035351;28;20057;-67
2022/10/21 03:48:53;;;;;;;68.10;37.97;;;9.90;99.90;;;;;;5035070;28;20029;-67
2022/10/21 03:51:19;;;;;;;72.35;40.63;;;9.90;99.90;;;;;;5061313;23;20417;-71
2022/10/21 03:53:44;;;;;;;71.40;39.92;;;9.90;99.90;;;;;;5056034;28;20563;-72
2022/10/21 03:56:11;;;;;;;71.43;40.70;;;9.90;99.90;;;;;;5055817;28;20037;-71
2022/10/21 03:58:36;;;;;;;76.57;40.47;;;9.90;99.90;;;;;;5055577;28;20506;-71
2022/10/21 04:01:02;;;;;;;62.67;38.17;;;9.90;99.90;;;;;;5055287;28;20029;-71
2022/10/21 04:03:28;;;;;;;63.55;36.55;;;9.90;99.90;;;;;;5055207;28;20537;-71
2022/10/21 04:05:54;;;;;;;64.60;39.60;;;9.90;99.90;;;;;;5055040;28;20029;-71
2022/10/21 04:08:19;;;;;;;64.32;37.22;;;9.90;99.90;;;;;;5053122;28;20048;-71
2022/10/21 04:10:46;;;;;;;64.25;36.45;;;9.90;99.90;;;;;;5046293;28;20476;-71
2022/10/21 04:13:11;;;;;;;71.82;37.92;;;9.80;99.90;;;;;;5048269;28;20039;-71
2022/10/21 04:15:37;;;;;;;67.38;38.72;;;9.80;99.90;;;;;;5054280;28;20061;-71
2022/10/21 04:18:04;;;;;;;67.95;35.60;;;9.80;99.90;;;;;;5051682;28;20017;-71
2022/10/21 04:20:29;;;;;;;64.88;37.05;;;9.80;99.90;;;;;;5034989;28;20417;-71
2022/10/21 04:22:55;;;;;;;54.55;33.20;;;9.70;99.90;;;;;;5039204;28;20053;-71
2022/10/21 04:25:20;;;;;;;50.78;31.67;;;9.70;99.90;;;;;;5033566;28;20017;-71
2022/10/21 04:27:46;;;;;;;61.00;35.00;;;9.70;99.90;;;;;;5034841;28;20040;-71
2022/10/21 04:30:11;;;;;;;68.28;35.95;;;9.60;99.90;;;;;;5035007;28;20038;-71
2022/10/21 04:32:37;;;;;;;56.80;32.65;;;9.50;99.90;;;;;;5034858;28;20507;-71
2022/10/21 04:35:02;;;;;;;52.85;31.83;;;9.40;99.90;;;;;;5054527;28;20583;-71
2022/10/21 04:37:28;;;;;;;51.92;32.97;;;9.40;99.90;;;;;;5051779;28;20029;-71
2022/10/21 04:39:56;;;;;;;48.85;30.10;;;9.30;99.90;;;;;;5054746;28;20065;-71
2022/10/21 04:42:21;;;;;;;52.08;30.42;;;9.20;99.90;;;;;;5054415;28;20032;-72
2022/10/21 04:44:47;;;;;;;51.40;30.88;;;9.10;99.90;;;;;;5051432;28;20013;-71
2022/10/21 04:47:13;;;;;;;48.55;31.15;;;9.10;99.90;;;;;;5054444;28;20110;-71
2022/10/21 04:49:38;;;;;;;44.95;28.95;;;9.00;99.90;;;;;;5054670;28;20029;-71
2022/10/21 04:52:04;;;;;;;51.47;29.98;;;9.00;99.90;;;;;;5036626;28;20037;-71
2022/10/21 04:54:29;;;;;;;41.72;27.73;;;9.00;99.90;;;;;;5034520;28;20101;-71
2022/10/21 04:56:55;;;;;;;41.33;26.17;;;8.90;99.90;;;;;;5035716;28;20037;-71
2022/10/21 04:59:20;;;;;;;42.55;26.20;;;8.90;99.90;;;;;;5034847;28;20025;-71
2022/10/21 05:01:46;;;;;;;52.30;28.73;;;8.80;99.90;;;;;;5034264;28;20021;-71
2022/10/21 05:04:11;;;;;;;47.83;29.45;;;8.70;99.90;;;;;;5036585;28;20048;-71
2022/10/21 05:06:37;;;;;;;55.42;29.85;;;8.70;99.90;;;;;;5054153;28;20028;-71
2022/10/21 05:09:03;;;;;;;48.50;28.30;;;8.60;99.90;;;;;;5054105;28;20111;-72
2022/10/21 05:11:29;;;;;;;50.42;28.88;;;8.60;99.90;;;;;;5049676;28;20071;-71
2022/10/21 05:13:55;;;;;;;47.17;29.35;;;8.50;99.90;;;;;;5052968;28;20374;-71
2022/10/21 05:16:20;;;;;;;46.55;28.13;;;8.50;99.90;;;;;;5053018;28;20081;-71
2022/10/21 05:18:46;;;;;;;48.65;29.30;;;8.50;99.90;;;;;;5051895;28;20048;-71
2022/10/21 05:21:12;;;;;;;51.25;29.65;;;8.40;99.90;;;;;;5050676;28;20476;-71
2022/10/21 05:23:38;;;;;;;57.85;30.33;;;8.40;99.90;;;;;;5053291;28;20025;-71
2022/10/21 05:26:03;;;;;;;53.38;30.00;;;8.40;99.90;;;;;;5053806;28;20603;-71
2022/10/21 05:28:29;;;;;;;52.55;28.17;;;8.40;99.90;;;;;;5053878;28;20036;-71
2022/10/21 05:30:54;;;;;;;56.15;32.88;;;8.40;99.90;;;;;;5040560;28;20485;-71
2022/10/21 05:33:20;;;;;;;56.30;32.15;;;8.40;99.90;;;;;;5035948;28;20489;-71
2022/10/21 05:35:55;;;;;;;66.78;34.55;;;8.40;99.90;;;;;;5032365;28;20032;-71
2022/10/21 05:38:21;;;;;;;58.17;31.55;;;8.40;99.90;;;;;;5048879;28;20632;-71
2022/10/21 05:40:47;;;;;;;63.63;32.95;;;8.40;99.90;;;;;;5052768;28;20061;-71
2022/10/21 05:43:13;;;;;;;59.95;32.70;;;8.50;99.90;;;;;;5041999;28;20041;-71
2022/10/21 05:45:38;;;;;;;63.80;32.90;;;8.40;99.90;;;;;;5033763;28;20033;-71
2022/10/21 05:48:04;;;;;;;51.90;31.85;;;8.50;99.90;;;;;;5037961;28;20380;-71
2022/10/21 05:50:29;;;;;;;50.40;28.52;;;8.50;99.90;;;;;;5053856;28;20384;-71
2022/10/21 05:52:58;;;;;;;59.15;30.42;;;8.40;99.90;;;;;;5051215;28;20036;-71
2022/10/21 05:55:23;;;;;;;53.28;28.80;;;8.40;99.90;;;;;;5033635;28;20489;-71
2022/10/21 05:57:49;;;;;;;50.38;29.73;;;8.40;99.90;;;;;;5033774;28;20028;-71
2022/10/21 06:00:15;;;;;;;57.33;29.70;;;8.40;99.90;;;;;;5035808;28;20032;-71
2022/10/21 06:02:40;;;;;;;51.70;29.48;;;8.40;99.90;;;;;;5033488;28;20022;-71
2022/10/21 06:05:06;;;;;;;49.65;29.27;;;8.40;99.90;;;;;;5042279;28;20435;-71
2022/10/21 06:07:32;;;;;;;60.42;31.75;;;8.40;99.90;;;;;;5057398;28;20032;-71
2022/10/21 06:09:57;;;;;;;65.68;33.28;;;8.40;99.90;;;;;;5057431;28;20033;-71
2022/10/21 06:12:23;;;;;;;63.45;32.58;;;8.40;99.90;;;;;;5057588;28;20029;-71
2022/10/21 06:14:48;;;;;;;57.35;31.73;;;8.50;99.90;;;;;;5057373;28;20027;-71
2022/10/21 06:17:14;;;;;;;65.90;34.17;;;8.50;99.90;;;;;;5057292;28;20112;-71
2022/10/21 06:19:39;;;;;;;62.03;32.75;;;8.50;99.90;;;;;;5057362;28;20039;-71
2022/10/21 06:22:05;;;;;;;60.08;32.67;;;8.60;99.90;;;;;;5056959;28;20021;-71
2022/10/21 06:24:31;;;;;;;64.63;35.05;;;8.60;99.90;;;;;;5057043;28;20021;-71
2022/10/21 06:26:57;;;;;;;68.07;34.72;;;8.70;99.90;;;;;;5055844;28;20025;-71
2022/10/21 06:29:23;;;;;;;68.70;33.28;;;8.80;99.90;;;;;;5057232;28;20029;-71
2022/10/21 06:31:48;;;;;;;62.05;33.95;;;8.80;99.90;;;;;;5057644;28;20032;-71
2022/10/21 06:34:14;;;;;;;67.15;32.97;;;8.90;99.90;;;;;;5057810;28;20032;-71
2022/10/21 06:36:39;;;;;;;56.47;30.77;;;8.90;99.90;;;;;;5057781;28;20021;-71
2022/10/21 06:39:06;;;;;;;49.88;29.27;;;9.00;99.90;;;;;;5057947;28;20033;-71
2022/10/21 06:41:32;;;;;;;55.20;32.60;;;9.00;99.90;;;;;;5056836;28;20112;-71
2022/10/21 06:43:57;;;;;;;50.53;30.20;;;9.10;99.90;;;;;;5056763;28;20061;-71
2022/10/21 06:46:23;;;;;;;54.17;29.60;;;9.10;99.90;;;;;;5056531;28;20025;-71
2022/10/21 06:48:49;;;;;;;57.38;31.67;;;9.10;99.90;;;;;;5056593;28;20025;-71
2022/10/21 06:51:23;;;;;;;67.38;33.90;;;9.20;99.90;;;;;;5056504;28;20025;-71
2022/10/21 06:53:55;;;;;;;60.15;31.05;;;9.20;99.90;;;;;;5056796;28;20068;-71
2022/10/21 06:56:22;;;;;;;66.05;33.10;;;9.30;99.90;;;;;;5043783;28;20057;-71
2022/10/21 06:58:48;;;;;;;68.85;34.63;;;9.30;99.90;;;;;;5036393;28;20495;-70
2022/10/21 07:01:22;;;;;;;61.15;33.65;;;9.40;99.90;;;;;;5039038;28;20140;-71
2022/10/21 07:03:48;;;;;;;59.10;32.33;;;9.40;99.90;;;;;;5036559;28;20022;-71
2022/10/21 07:06:15;;;;;;;62.75;33.17;;;9.50;99.90;;;;;;5035110;28;20488;-71
2022/10/21 07:08:41;;;;;;;64.95;34.28;;;9.60;99.90;;;;;;5036310;28;20032;-71
2022/10/21 07:11:07;;;;;;;73.25;35.88;;;9.60;99.90;;;;;;5036450;28;20112;-71
2022/10/21 07:13:34;;;;;;;63.65;35.20;;;9.70;99.90;;;;;;5052645;28;20075;-71
2022/10/21 07:16:02;;;;;;;64.75;35.72;;;9.80;99.90;;;;;;5055098;28;20052;-71
2022/10/21 07:18:28;;;;;;;68.38;36.30;;;9.80;99.90;;;;;;5053920;28;20515;-71
2022/10/21 07:20:54;;;;;;;66.47;34.63;;;9.90;99.90;;;;;;5056493;28;20029;-72
2022/10/21 07:23:20;;;;;;;67.40;34.45;;;10.00;99.90;;;;;;5051469;28;20099;-71
2022/10/21 07:25:45;;;;;;;63.55;33.17;;;10.00;99.90;;;;;;5055875;28;20029;-71
2022/10/21 07:28:11;;;;;;;55.70;34.15;;;10.10;99.90;;;;;;5054113;28;20040;-71
2022/10/21 07:30:41;;;;;;;62.10;35.90;;;10.10;99.90;;;;;;5037554;28;20049;-71
2022/10/21 07:33:07;;;;;;;62.97;34.92;;;10.20;99.90;;;;;;5038141;28;20057;-71
2022/10/21 07:35:33;;;;;;;51.80;30.83;;;10.30;99.90;;;;;;5055868;28;20143;-71
2022/10/21 07:37:58;;;;;;;60.58;33.20;;;10.30;99.90;;;;;;5055540;28;20083;-71
2022/10/21 07:40:24;;;;;;;61.67;32.55;;;10.30;99.90;;;;;;5053374;28;20033;-71
2022/10/21 07:42:49;;;;;;;61.17;33.58;;;10.30;99.90;;;;;;5054256;28;20021;-71
2022/10/21 07:45:15;;;;;;;62.50;30.88;;;10.40;99.90;;;;;;5044967;28;20057;-71
2022/10/21 07:47:40;;;;;;;54.33;29.67;;;10.50;99.90;;;;;;5035552;28;20033;-71
2022/10/21 07:50:06;;;;;;;65.85;36.00;;;10.50;99.90;;;;;;5035779;28;20030;-71
2022/10/21 07:52:32;;;;;;;64.43;32.95;;;10.60;99.90;;;;;;5037270;28;20472;-71
2022/10/21 07:54:57;;;;;;;60.92;33.20;;;10.60;99.90;;;;;;5055276;28;20048;-71
2022/10/21 07:57:23;;;;;;;52.03;30.60;;;10.60;99.90;;;;;;5055851;28;20082;-71
2022/10/21 07:59:48;;;;;;;56.05;31.05;;;10.60;99.90;;;;;;5055823;28;20075;-70
2022/10/21 08:02:14;;;;;;;60.25;33.95;;;10.70;99.90;;;;;;5055351;28;20021;-71
2022/10/21 08:04:39;;;;;;;53.70;30.35;;;10.70;99.90;;;;;;5055224;28;20028;-71
2022/10/21 08:07:05;;;;;;;53.83;29.23;;;10.70;99.90;;;;;;5053877;28;20036;-71
2022/10/21 08:09:31;;;;;;;52.17;30.45;;;10.80;99.90;;;;;;5055247;28;20037;-72
2022/10/21 08:11:57;;;;;;;50.75;29.10;;;10.80;99.90;;;;;;5054927;28;20388;-72
2022/10/21 08:14:23;;;;;;;53.50;32.30;;;10.80;99.90;;;;;;5055357;28;20021;-72
2022/10/21 08:16:53;;;;;;;54.10;30.25;;;10.80;99.90;;;;;;5051652;28;20028;-71
2022/10/21 08:19:20;;;;;;;59.20;30.45;;;10.80;99.90;;;;;;5041759;28;20052;-71
2022/10/21 08:21:45;;;;;;;51.75;30.23;;;10.90;99.90;;;;;;5054756;28;20079;-71
2022/10/21 08:24:11;;;;;;;43.88;28.40;;;10.90;99.90;;;;;;5047859;28;20021;-71
2022/10/21 08:26:37;;;;;;;50.85;29.17;;;10.90;99.90;;;;;;5052744;28;20476;-71
2022/10/21 08:29:03;;;;;;;40.70;25.60;;;10.90;99.90;;;;;;5052840;28;20025;-71
2022/10/21 08:31:28;;;;;;;43.67;26.95;;;10.90;99.90;;;;;;5054617;28;20029;-71
2022/10/21 08:33:54;;;;;;;42.60;25.25;;;11.00;99.90;;;;;;5052756;28;20028;-71
2022/10/21 08:36:23;;;;;;;43.78;25.67;;;11.10;99.90;;;;;;5053277;28;20500;-71
2022/10/21 08:38:50;;;;;;;35.03;22.20;;;11.20;99.90;;;;;;5054649;28;20018;-72
2022/10/21 08:41:31;;;;;;;39.95;25.48;;;11.30;99.90;;;;;;5054118;28;20025;-71
2022/10/21 08:44:26;;;;;;;43.13;26.95;;;11.40;99.90;;;;;;5054719;28;20380;-71
2022/10/21 08:47:17;;;;;;;51.40;28.83;;;11.50;99.90;;;;;;5054580;28;20036;-71
2022/10/21 08:49:54;;;;;;;50.53;28.42;;;11.50;99.90;;;;;;5054415;28;20109;-72
2022/10/21 08:52:30;;;;;;;55.03;31.85;;;11.60;99.90;;;;;;5052835;28;20479;-71
2022/10/21 08:55:01;;;;;;;49.33;27.77;;;11.70;99.90;;;;;;5054286;28;20029;-71
2022/10/21 08:57:27;;;;;;;49.13;28.48;;;11.80;99.90;;;;;;5054134;28;20021;-71
2022/10/21 08:59:54;;;;;;;46.08;27.00;;;11.70;99.90;;;;;;5054310;28;20024;-71
2022/10/21 09:02:27;;;;;;;48.92;29.90;;;11.70;99.90;;;;;;5054147;28;20423;-71
2022/10/21 09:05:21;;;;;;;40.35;23.90;;;11.80;99.90;;;;;;5054079;28;20059;-71
2022/10/21 09:08:08;;;;;;;46.53;27.65;;;11.80;99.90;;;;;;5054455;28;20059;-71
2022/10/21 09:10:54;;;;;;;51.58;28.52;;;11.80;99.90;;;;;;5051629;28;20029;-70
2022/10/21 09:13:32;;;;;;;43.33;27.02;;;11.70;99.90;;;;;;5054373;28;20087;-71
2022/10/21 09:16:23;;;;;;;45.72;28.70;;;11.80;99.90;;;;;;5049143;28;20483;-70
2022/10/21 09:19:01;;;;;;;41.33;24.08;;;11.70;99.90;;;;;;5053938;28;20025;-71
2022/10/21 09:21:35;;;;;;;48.55;27.92;;;11.80;99.90;;;;;;5053590;28;20362;-70
2022/10/21 09:24:30;;;;;;;37.97;26.52;;;11.80;99.90;;;;;;5053711;28;20024;-71
2022/10/21 09:26:56;;;;;;;39.65;25.17;;;11.90;99.90;;;;;;5052790;28;20037;-71
2022/10/21 09:29:30;;;;;;;41.90;25.55;;;12.00;99.90;;;;;;5053788;28;20055;-71
2022/10/21 09:32:07;;;;;;;36.92;25.52;;;12.00;99.90;;;;;;5052300;28;20121;-71
2022/10/21 09:34:55;;;;;;;42.08;25.67;;;12.10;99.90;;;;;;5053479;28;20033;-71
2022/10/21 09:37:27;;;;;;;44.22;24.58;;;12.10;99.90;;;;;;5053564;28;20383;-71
2022/10/21 09:40:22;;;;;;;38.90;23.92;;;12.10;99.90;;;;;;5051913;28;20061;-71
2022/10/21 09:42:54;;;;;;;40.33;26.30;;;12.10;99.90;;;;;;5052934;28;20033;-71
2022/10/21 09:45:25;;;;;;;39.20;25.20;;;12.10;99.90;;;;;;5053580;28;20021;-70
2022/10/21 09:48:04;;;;;;;35.08;22.95;;;12.10;99.90;;;;;;5053982;28;20021;-70
2022/10/21 09:50:32;;;;;;;42.35;24.48;;;12.00;99.90;;;;;;5053290;28;20037;-70
2022/10/21 09:53:18;;;;;;;41.65;25.05;;;12.00;99.90;;;;;;5046847;23;20046;-72
2022/10/21 09:55:48;;;;;;;51.13;27.05;;;12.00;99.90;;;;;;5028982;28;20041;-73
2022/10/21 09:58:26;;;;;;;38.88;25.40;;;11.90;99.90;;;;;;5001134;28;20029;-74
2022/10/21 10:00:52;;;;;;;31.35;21.10;;;12.00;99.90;;;;;;4993106;28;20119;-73
2022/10/21 10:03:31;;;;;;;39.67;24.05;;;11.90;99.90;;;;;;5006480;28;20033;-74
2022/10/21 10:05:58;;;;;;;40.00;24.42;;;11.90;99.90;;;;;;5008850;28;20097;-73
2022/10/21 10:08:46;;;;;;;37.45;24.67;;;11.90;99.90;;;;;;4994159;28;20478;-73
2022/10/21 10:11:20;;;;;;;35.78;22.88;;;11.90;99.90;;;;;;5000510;28;20033;-74
2022/10/21 10:13:51;;;;;;;31.48;22.35;;;11.90;99.90;;;;;;5013740;28;20036;-74
2022/10/21 10:16:29;;;;;;;36.22;22.15;;;11.90;99.90;;;;;;5008650;28;20026;-74
2022/10/21 10:19:10;;;;;;;35.85;21.98;;;12.00;99.90;;;;;;5013557;28;20018;-74
2022/10/21 10:21:36;;;;;;;33.63;21.30;;;12.10;99.90;;;;;;5009369;28;20034;-73
2022/10/21 10:24:04;;;;;;;30.52;20.45;;;12.20;99.90;;;;;;5012456;28;20029;-73
2022/10/21 10:26:32;;;;;;;26.02;19.17;;;12.30;99.90;;;;;;5011126;28;20045;-72
2022/10/21 10:29:08;;;;;;;26.90;19.95;;;12.40;99.90;;;;;;5013514;28;20362;-73
2022/10/21 10:31:35;;;;;;;28.63;20.08;;;12.50;99.90;;;;;;5013757;28;20057;-73
2022/10/21 10:34:07;;;;;;;28.20;20.00;;;12.60;99.90;;;;;;4997956;28;20406;-73
2022/10/21 10:36:38;;;;;;;27.52;19.92;;;12.70;99.90;;;;;;4993879;28;20042;-73
2022/10/21 10:39:22;;;;;;;29.17;21.63;;;12.90;99.90;;;;;;4993969;28;20018;-73
2022/10/21 10:41:48;;;;;;;37.03;24.33;;;13.30;99.90;;;;;;4994238;28;20031;-73
2022/10/21 10:44:45;;;;;;;40.40;25.83;;;13.60;99.90;;;;;;5002397;28;20370;-72
2022/10/21 10:47:20;;;;;;;33.67;23.48;;;13.90;99.90;;;;;;5012974;28;20042;-73
2022/10/21 10:49:46;;;;;;;36.40;25.80;;;14.00;99.90;;;;;;5010706;28;20389;-73
2022/10/21 10:52:12;;;;;;;39.85;26.50;;;14.00;99.90;;;;;;5017195;28;20030;-73
2022/10/21 10:54:39;;;;;;;44.88;27.58;;;14.00;99.90;;;;;;5015446;28;20032;-72
2022/10/21 10:57:19;;;;;;;40.90;28.05;;;14.00;99.90;;;;;;5017130;28;20135;-73
2022/10/21 10:59:54;;;;;;;44.55;28.05;;;14.10;99.90;;;;;;5014059;28;20033;-72
2022/10/21 11:02:44;;;;;;;50.15;30.25;;;14.10;99.90;;;;;;4997450;28;20018;-72
2022/10/21 11:05:35;;;;;;;47.67;26.70;;;14.10;99.90;;;;;;5008827;28;20164;-72
2022/10/21 11:08:03;;;;;;;50.05;29.85;;;14.10;99.90;;;;;;5017057;28;20076;-73
2022/10/21 11:10:52;;;;;;;40.38;27.70;;;14.00;99.90;;;;;;5013874;28;20034;-72
2022/10/21 11:13:20;;;;;;;44.30;27.50;;;14.00;99.90;;;;;;5016691;28;20100;-72
2022/10/21 11:16:20;;;;;;;42.90;28.73;;;14.00;99.90;;;;;;5014600;28;20493;-72
2022/10/21 11:18:53;;;;;;;47.47;30.23;;;13.90;99.90;;;;;;5013638;28;20485;-73
2022/10/21 11:21:44;;;;;;;54.67;31.58;;;13.90;99.90;;;;;;5016697;28;20030;-72
2022/10/21 11:24:34;;;;;;;47.38;28.85;;;13.80;99.90;;;;;;5014492;28;20080;-72
2022/10/21 11:27:15;;;;;;;65.78;31.55;;;13.80;99.90;;;;;;5016515;28;20026;-72
2022/10/21 11:30:20;;;;;;;49.63;29.67;;;13.90;99.90;;;;;;5004924;28;20045;-72
2022/10/21 11:33:08;;;;;;;42.90;26.45;;;13.90;99.90;;;;;;4998056;28;20038;-72
2022/10/21 11:36:01;;;;;;;43.30;28.05;;;14.10;99.90;;;;;;5011682;28;20032;-73
2022/10/21 11:38:53;;;;;;;43.90;29.33;;;14.10;99.90;;;;;;5014602;28;20030;-72
2022/10/21 11:41:32;;;;;;;52.03;30.33;;;14.10;99.90;;;;;;5011692;28;20064;-73
2022/10/21 11:44:03;;;;;;;50.53;30.08;;;14.00;99.90;;;;;;4997030;28;20422;-72
2022/10/21 11:46:47;;;;;;;48.65;30.02;;;13.90;99.90;;;;;;4996405;28;20027;-73
2022/10/21 11:49:31;;;;;;;;;;;13.80;99.90;;;;;;4996713;28;20054;-73
2022/10/21 11:52:07;;;;;;;43.72;29.08;;;13.80;99.90;;;;;;4997540;28;19920;-72
2022/10/21 11:54:38;;;;;;;45.33;27.73;;;13.90;99.90;;;;;;4996351;28;20062;-72
2022/10/21 11:57:09;;;;;;;41.22;26.30;;;14.00;99.90;;;;;;4998977;28;20401;-72
2022/10/21 12:00:17;;;;;;;56.17;31.60;;;14.00;99.90;;;;;;4996161;28;20027;-73
2022/10/21 12:02:45;;;;;;;39.58;27.55;;;14.00;99.90;;;;;;5010579;28;20112;-73
2022/10/21 12:05:23;;;;;;;46.63;29.88;;;14.00;99.90;;;;;;5012331;28;20034;-73
2022/10/21 12:08:03;;;;;;;48.33;28.33;;;14.00;99.90;;;;;;5015593;28;20033;-73
2022/10/21 12:10:53;;;;;;;35.63;25.58;;;14.10;99.90;;;;;;5006717;28;20382;-73
2022/10/21 12:13:57;;;;;;;42.38;28.25;;;14.10;99.90;;;;;;4995860;28;20039;-73
2022/10/21 12:16:25;;;;;;;;;;;14.00;99.90;;;;;;4998574;28;20065;-73
2022/10/21 12:19:03;;;;;;;52.78;30.13;;;14.00;99.90;;;;;;4994614;28;20293;-73
2022/10/21 12:21:34;;;;;;;41.47;28.38;;;14.00;99.90;;;;;;5002752;28;20022;-72
2022/10/21 12:24:33;;;;;;;52.58;32.85;;;14.10;99.90;;;;;;5015106;28;20045;-71
2022/10/21 12:27:09;;;;;;;45.10;29.27;;;14.00;99.90;;;;;;4982826;28;20033;-72
2022/10/21 12:29:47;;;;;;;49.13;28.27;;;14.00;99.90;;;;;;5015476;28;20366;-72
2022/10/21 12:32:29;;;;;;;41.15;27.60;;;14.00;99.90;;;;;;5009579;28;20036;-72
2022/10/21 12:34:55;;;;;;;48.63;28.83;;;13.90;99.90;;;;;;5011383;28;20022;-72
2022/10/21 12:37:51;;;;;;;41.50;28.23;;;13.80;99.90;;;;;;5014906;28;20489;-72
2022/10/21 12:40:26;;;;;;;38.00;25.20;;;13.90;99.90;;;;;;5014856;28;20053;-72
2022/10/21 12:43:00;;;;;;;50.00;28.80;;;14.00;99.90;;;;;;5011955;28;20104;-72
2022/10/21 12:45:35;;;;;;;55.30;31.45;;;14.00;99.90;;;;;;5014787;28;20029;-72
2022/10/21 12:48:06;;;;;;;46.42;30.58;;;14.00;99.90;;;;;;5013159;28;20060;-72
2022/10/21 12:50:33;;;;;;;46.03;29.23;;;14.10;99.90;;;;;;5013281;28;20117;-73